sensor_id;sensor_type;location;lat;lon;timestamp;P1;durP1;ratioP1;P2;durP2;ratioP2
17524;SDS011;40431;52.198;9.902;2023-06-10T00:01:17;5.17;;;3.87;;
17524;SDS011;40431;52.198;9.902;2023-06-10T00:03:44;3.70;;;3.40;;
17524;SDS011;40431;52.198;9.902;2023-06-10T00:06:10;3.80;;;3.50;;
17524;SDS011;40431;52.198;9.902;2023-06-10T00:08:36;5.17;;;4.13;;
17524;SDS011;40431;52.198;9.902;2023-06-10T00:11:06;5.63;;;3.97;;
17524;SDS011;40431;52.198;9.902;2023-06-10T00:13:32;3.83;;;3.53;;
17524;SDS011;40431;52.198;9.902;2023-06-10T00:15:58;4.73;;;3.97;;
17524;SDS011;40431;52.198;9.902;2023-06-10T00:18:25;5.33;;;3.90;;
17524;SDS011;40431;52.198;9.902;2023-06-10T00:20:52;5.47;;;3.83;;
17524;SDS011;40431;52.198;9.902;2023-06-10T00:23:20;3.93;;;3.60;;
17524;SDS011;40431;52.198;9.902;2023-06-10T00:25:46;5.13;;;3.80;;
17524;SDS011;40431;52.198;9.902;2023-06-10T00:28:14;4.10;;;3.70;;
17524;SDS011;40431;52.198;9.902;2023-06-10T00:30:41;4.10;;;3.70;;
17524;SDS011;40431;52.198;9.902;2023-06-10T00:33:07;4.20;;;3.80;;
17524;SDS011;40431;52.198;9.902;2023-06-10T00:35:33;4.27;;;3.87;;
17524;SDS011;40431;52.198;9.902;2023-06-10T00:38:00;4.20;;;3.80;;
17524;SDS011;40431;52.198;9.902;2023-06-10T00:40:26;3.77;;;3.47;;
17524;SDS011;40431;52.198;9.902;2023-06-10T00:42:52;10.97;;;4.07;;
17524;SDS011;40431;52.198;9.902;2023-06-10T00:45:20;5.00;;;4.27;;
17524;SDS011;40431;52.198;9.902;2023-06-10T00:47:46;3.77;;;3.47;;
17524;SDS011;40431;52.198;9.902;2023-06-10T00:50:13;3.80;;;3.43;;
17524;SDS011;40431;52.198;9.902;2023-06-10T00:52:39;4.33;;;3.63;;
17524;SDS011;40431;52.198;9.902;2023-06-10T00:55:08;8.47;;;2.83;;
17524;SDS011;40431;52.198;9.902;2023-06-10T00:57:35;5.70;;;3.70;;
17524;SDS011;40431;52.198;9.902;2023-06-10T01:00:03;5.43;;;3.33;;
17524;SDS011;40431;52.198;9.902;2023-06-10T01:02:34;4.70;;;3.53;;
17524;SDS011;40431;52.198;9.902;2023-06-10T01:05:01;4.57;;;3.67;;
17524;SDS011;40431;52.198;9.902;2023-06-10T01:07:30;4.37;;;3.10;;
17524;SDS011;40431;52.198;9.902;2023-06-10T01:10:04;3.90;;;3.07;;
17524;SDS011;40431;52.198;9.902;2023-06-10T01:12:37;4.33;;;3.93;;
17524;SDS011;40431;52.198;9.902;2023-06-10T01:15:07;4.10;;;3.63;;
17524;SDS011;40431;52.198;9.902;2023-06-10T01:17:36;7.17;;;4.03;;
17524;SDS011;40431;52.198;9.902;2023-06-10T01:20:17;4.40;;;3.93;;
17524;SDS011;40431;52.198;9.902;2023-06-10T01:22:45;4.13;;;3.73;;
17524;SDS011;40431;52.198;9.902;2023-06-10T01:25:12;3.90;;;3.50;;
17524;SDS011;40431;52.198;9.902;2023-06-10T01:27:39;5.80;;;3.53;;
17524;SDS011;40431;52.198;9.902;2023-06-10T01:30:10;6.10;;;3.77;;
17524;SDS011;40431;52.198;9.902;2023-06-10T01:32:43;3.83;;;3.40;;
17524;SDS011;40431;52.198;9.902;2023-06-10T01:35:12;6.73;;;3.80;;
17524;SDS011;40431;52.198;9.902;2023-06-10T01:37:40;4.53;;;4.13;;
17524;SDS011;40431;52.198;9.902;2023-06-10T01:40:12;6.67;;;4.20;;
17524;SDS011;40431;52.198;9.902;2023-06-10T01:42:40;7.30;;;3.50;;
17524;SDS011;40431;52.198;9.902;2023-06-10T01:45:07;4.40;;;4.00;;
17524;SDS011;40431;52.198;9.902;2023-06-10T01:47:34;4.43;;;3.70;;
17524;SDS011;40431;52.198;9.902;2023-06-10T01:50:01;7.23;;;4.97;;
17524;SDS011;40431;52.198;9.902;2023-06-10T01:52:27;9.63;;;4.20;;
17524;SDS011;40431;52.198;9.902;2023-06-10T01:54:53;5.73;;;4.93;;
17524;SDS011;40431;52.198;9.902;2023-06-10T01:57:21;7.57;;;4.50;;
17524;SDS011;40431;52.198;9.902;2023-06-10T01:59:48;5.17;;;4.40;;
17524;SDS011;40431;52.198;9.902;2023-06-10T02:02:14;4.67;;;4.20;;
17524;SDS011;40431;52.198;9.902;2023-06-10T02:04:40;5.43;;;4.50;;
17524;SDS011;40431;52.198;9.902;2023-06-10T02:07:07;6.33;;;4.17;;
17524;SDS011;40431;52.198;9.902;2023-06-10T02:09:33;4.70;;;4.13;;
17524;SDS011;40431;52.198;9.902;2023-06-10T02:12:00;4.50;;;3.83;;
17524;SDS011;40431;52.198;9.902;2023-06-10T02:14:29;4.67;;;3.60;;
17524;SDS011;40431;52.198;9.902;2023-06-10T02:16:55;4.53;;;3.80;;
17524;SDS011;40431;52.198;9.902;2023-06-10T02:19:22;5.37;;;4.20;;
17524;SDS011;40431;52.198;9.902;2023-06-10T02:21:50;4.07;;;3.67;;
17524;SDS011;40431;52.198;9.902;2023-06-10T02:24:16;5.93;;;4.47;;
17524;SDS011;40431;52.198;9.902;2023-06-10T02:26:43;7.00;;;4.67;;
17524;SDS011;40431;52.198;9.902;2023-06-10T02:29:10;4.90;;;4.40;;
17524;SDS011;40431;52.198;9.902;2023-06-10T02:31:38;6.37;;;4.63;;
17524;SDS011;40431;52.198;9.902;2023-06-10T02:34:04;6.57;;;4.03;;
17524;SDS011;40431;52.198;9.902;2023-06-10T02:36:31;4.90;;;4.40;;
17524;SDS011;40431;52.198;9.902;2023-06-10T02:38:57;5.30;;;4.83;;
17524;SDS011;40431;52.198;9.902;2023-06-10T02:41:23;4.83;;;4.33;;
17524;SDS011;40431;52.198;9.902;2023-06-10T02:43:50;7.57;;;4.53;;
17524;SDS011;40431;52.198;9.902;2023-06-10T02:46:16;5.80;;;5.13;;
17524;SDS011;40431;52.198;9.902;2023-06-10T02:48:45;4.50;;;3.70;;
17524;SDS011;40431;52.198;9.902;2023-06-10T02:51:12;4.50;;;4.10;;
17524;SDS011;40431;52.198;9.902;2023-06-10T02:53:38;5.23;;;4.70;;
17524;SDS011;40431;52.198;9.902;2023-06-10T02:56:05;6.63;;;4.77;;
17524;SDS011;40431;52.198;9.902;2023-06-10T02:58:31;5.13;;;4.50;;
17524;SDS011;40431;52.198;9.902;2023-06-10T03:00:57;5.27;;;4.73;;
17524;SDS011;40431;52.198;9.902;2023-06-10T03:03:24;6.37;;;4.97;;
17524;SDS011;40431;52.198;9.902;2023-06-10T03:05:52;4.67;;;4.27;;
17524;SDS011;40431;52.198;9.902;2023-06-10T03:08:18;5.17;;;4.73;;
17524;SDS011;40431;52.198;9.902;2023-06-10T03:10:44;5.10;;;4.67;;
17524;SDS011;40431;52.198;9.902;2023-06-10T03:13:11;5.83;;;5.20;;
17524;SDS011;40431;52.198;9.902;2023-06-10T03:15:38;7.63;;;5.73;;
17524;SDS011;40431;52.198;9.902;2023-06-10T03:18:05;5.57;;;5.07;;
17524;SDS011;40431;52.198;9.902;2023-06-10T03:20:32;5.73;;;5.23;;
17524;SDS011;40431;52.198;9.902;2023-06-10T03:23:04;5.00;;;4.53;;
17524;SDS011;40431;52.198;9.902;2023-06-10T03:25:31;7.23;;;5.00;;
17524;SDS011;40431;52.198;9.902;2023-06-10T03:27:57;6.77;;;4.97;;
17524;SDS011;40431;52.198;9.902;2023-06-10T03:30:24;5.57;;;5.03;;
17524;SDS011;40431;52.198;9.902;2023-06-10T03:32:50;5.27;;;4.77;;
17524;SDS011;40431;52.198;9.902;2023-06-10T03:35:16;5.50;;;5.00;;
17524;SDS011;40431;52.198;9.902;2023-06-10T03:37:43;5.67;;;5.17;;
17524;SDS011;40431;52.198;9.902;2023-06-10T03:40:11;5.50;;;5.07;;
17524;SDS011;40431;52.198;9.902;2023-06-10T03:42:37;5.87;;;5.27;;
17524;SDS011;40431;52.198;9.902;2023-06-10T03:45:04;7.37;;;5.53;;
17524;SDS011;40431;52.198;9.902;2023-06-10T03:47:33;6.50;;;5.70;;
17524;SDS011;40431;52.198;9.902;2023-06-10T03:50:00;5.90;;;5.40;;
17524;SDS011;40431;52.198;9.902;2023-06-10T03:52:28;6.63;;;5.87;;
17524;SDS011;40431;52.198;9.902;2023-06-10T03:54:54;7.07;;;6.13;;
17524;SDS011;40431;52.198;9.902;2023-06-10T03:57:22;6.70;;;5.30;;
17524;SDS011;40431;52.198;9.902;2023-06-10T03:59:48;6.40;;;5.80;;
17524;SDS011;40431;52.198;9.902;2023-06-10T04:02:15;5.93;;;5.33;;
17524;SDS011;40431;52.198;9.902;2023-06-10T04:04:41;6.13;;;5.53;;
17524;SDS011;40431;52.198;9.902;2023-06-10T04:07:07;10.73;;;5.83;;
17524;SDS011;40431;52.198;9.902;2023-06-10T04:09:34;6.43;;;5.77;;
17524;SDS011;40431;52.198;9.902;2023-06-10T04:12:01;6.47;;;5.87;;
17524;SDS011;40431;52.198;9.902;2023-06-10T04:14:32;6.97;;;6.27;;
17524;SDS011;40431;52.198;9.902;2023-06-10T04:16:58;5.70;;;5.20;;
17524;SDS011;40431;52.198;9.902;2023-06-10T04:19:27;7.40;;;5.80;;
17524;SDS011;40431;52.198;9.902;2023-06-10T04:21:56;6.20;;;5.70;;
17524;SDS011;40431;52.198;9.902;2023-06-10T04:24:22;8.23;;;5.80;;
17524;SDS011;40431;52.198;9.902;2023-06-10T04:26:49;7.73;;;5.50;;
17524;SDS011;40431;52.198;9.902;2023-06-10T04:29:15;6.00;;;5.50;;
17524;SDS011;40431;52.198;9.902;2023-06-10T04:31:43;6.00;;;5.40;;
17524;SDS011;40431;52.198;9.902;2023-06-10T04:34:11;8.33;;;6.03;;
17524;SDS011;40431;52.198;9.902;2023-06-10T04:36:37;6.83;;;5.97;;
17524;SDS011;40431;52.198;9.902;2023-06-10T04:39:04;6.73;;;6.03;;
17524;SDS011;40431;52.198;9.902;2023-06-10T04:41:30;8.10;;;6.00;;
17524;SDS011;40431;52.198;9.902;2023-06-10T04:43:57;6.70;;;6.20;;
17524;SDS011;40431;52.198;9.902;2023-06-10T04:46:25;7.47;;;6.67;;
17524;SDS011;40431;52.198;9.902;2023-06-10T04:48:52;6.83;;;6.13;;
17524;SDS011;40431;52.198;9.902;2023-06-10T04:51:20;8.80;;;6.40;;
17524;SDS011;40431;52.198;9.902;2023-06-10T04:53:46;6.80;;;6.20;;
17524;SDS011;40431;52.198;9.902;2023-06-10T04:56:12;6.70;;;5.67;;
17524;SDS011;40431;52.198;9.902;2023-06-10T04:58:40;6.90;;;6.20;;
17524;SDS011;40431;52.198;9.902;2023-06-10T05:01:06;8.53;;;7.07;;
17524;SDS011;40431;52.198;9.902;2023-06-10T05:03:33;8.60;;;6.33;;
17524;SDS011;40431;52.198;9.902;2023-06-10T05:06:00;6.97;;;6.33;;
17524;SDS011;40431;52.198;9.902;2023-06-10T05:08:27;8.40;;;6.33;;
17524;SDS011;40431;52.198;9.902;2023-06-10T05:10:53;7.17;;;6.50;;
17524;SDS011;40431;52.198;9.902;2023-06-10T05:13:20;6.87;;;6.27;;
17524;SDS011;40431;52.198;9.902;2023-06-10T05:15:46;8.40;;;6.80;;
17524;SDS011;40431;52.198;9.902;2023-06-10T05:18:13;8.70;;;6.20;;
17524;SDS011;40431;52.198;9.902;2023-06-10T05:20:39;8.83;;;6.80;;
17524;SDS011;40431;52.198;9.902;2023-06-10T05:23:07;6.57;;;5.93;;
17524;SDS011;40431;52.198;9.902;2023-06-10T05:25:34;7.80;;;7.13;;
17524;SDS011;40431;52.198;9.902;2023-06-10T05:28:01;10.83;;;7.17;;
17524;SDS011;40431;52.198;9.902;2023-06-10T05:30:27;7.63;;;6.53;;
17524;SDS011;40431;52.198;9.902;2023-06-10T05:32:53;6.97;;;6.37;;
17524;SDS011;40431;52.198;9.902;2023-06-10T05:35:21;6.97;;;6.37;;
17524;SDS011;40431;52.198;9.902;2023-06-10T05:37:47;7.20;;;6.53;;
17524;SDS011;40431;52.198;9.902;2023-06-10T05:40:15;7.77;;;6.90;;
17524;SDS011;40431;52.198;9.902;2023-06-10T05:42:42;8.40;;;7.60;;
17524;SDS011;40431;52.198;9.902;2023-06-10T05:45:09;9.30;;;7.77;;
17524;SDS011;40431;52.198;9.902;2023-06-10T05:47:36;10.40;;;7.77;;
17524;SDS011;40431;52.198;9.902;2023-06-10T05:50:02;7.93;;;6.90;;
17524;SDS011;40431;52.198;9.902;2023-06-10T05:52:32;9.93;;;8.40;;
17524;SDS011;40431;52.198;9.902;2023-06-10T05:54:58;8.60;;;7.50;;
17524;SDS011;40431;52.198;9.902;2023-06-10T05:57:26;8.77;;;7.47;;
17524;SDS011;40431;52.198;9.902;2023-06-10T05:59:53;9.20;;;7.30;;
17524;SDS011;40431;52.198;9.902;2023-06-10T06:02:19;8.07;;;7.37;;
17524;SDS011;40431;52.198;9.902;2023-06-10T06:04:45;8.53;;;7.73;;
17524;SDS011;40431;52.198;9.902;2023-06-10T06:07:12;8.97;;;7.67;;
17524;SDS011;40431;52.198;9.902;2023-06-10T06:09:38;8.30;;;7.47;;
17524;SDS011;40431;52.198;9.902;2023-06-10T06:12:05;8.10;;;7.40;;
17524;SDS011;40431;52.198;9.902;2023-06-10T06:14:36;11.57;;;8.00;;
17524;SDS011;40431;52.198;9.902;2023-06-10T06:17:03;8.03;;;7.23;;
17524;SDS011;40431;52.198;9.902;2023-06-10T06:19:30;8.23;;;7.63;;
17524;SDS011;40431;52.198;9.902;2023-06-10T06:21:57;7.57;;;6.87;;
17524;SDS011;40431;52.198;9.902;2023-06-10T06:24:23;8.37;;;7.57;;
17524;SDS011;40431;52.198;9.902;2023-06-10T06:26:49;8.07;;;6.90;;
17524;SDS011;40431;52.198;9.902;2023-06-10T06:29:16;8.03;;;7.33;;
17524;SDS011;40431;52.198;9.902;2023-06-10T06:31:44;7.70;;;6.90;;
17524;SDS011;40431;52.198;9.902;2023-06-10T06:34:10;8.30;;;7.47;;
17524;SDS011;40431;52.198;9.902;2023-06-10T06:36:37;8.00;;;7.30;;
17524;SDS011;40431;52.198;9.902;2023-06-10T06:39:03;7.90;;;7.10;;
17524;SDS011;40431;52.198;9.902;2023-06-10T06:41:30;7.80;;;7.00;;
17524;SDS011;40431;52.198;9.902;2023-06-10T06:43:56;8.70;;;7.90;;
17524;SDS011;40431;52.198;9.902;2023-06-10T06:46:22;8.67;;;7.17;;
17524;SDS011;40431;52.198;9.902;2023-06-10T06:48:50;8.40;;;7.53;;
17524;SDS011;40431;52.198;9.902;2023-06-10T06:51:16;10.57;;;8.03;;
17524;SDS011;40431;52.198;9.902;2023-06-10T06:53:43;9.53;;;7.37;;
17524;SDS011;40431;52.198;9.902;2023-06-10T06:56:10;8.13;;;7.30;;
17524;SDS011;40431;52.198;9.902;2023-06-10T06:58:37;8.03;;;7.37;;
17524;SDS011;40431;52.198;9.902;2023-06-10T07:01:03;8.80;;;7.90;;
17524;SDS011;40431;52.198;9.902;2023-06-10T07:03:30;9.60;;;7.37;;
17524;SDS011;40431;52.198;9.902;2023-06-10T07:05:58;8.37;;;6.93;;
17524;SDS011;40431;52.198;9.902;2023-06-10T07:08:24;7.53;;;6.80;;
17524;SDS011;40431;52.198;9.902;2023-06-10T07:10:51;8.20;;;7.03;;
17524;SDS011;40431;52.198;9.902;2023-06-10T07:13:17;8.67;;;7.03;;
17524;SDS011;40431;52.198;9.902;2023-06-10T07:15:43;7.63;;;6.93;;
17524;SDS011;40431;52.198;9.902;2023-06-10T07:18:10;8.60;;;7.80;;
17524;SDS011;40431;52.198;9.902;2023-06-10T07:20:36;7.20;;;6.60;;
17524;SDS011;40431;52.198;9.902;2023-06-10T07:23:04;8.00;;;7.20;;
17524;SDS011;40431;52.198;9.902;2023-06-10T07:25:30;7.87;;;7.17;;
17524;SDS011;40431;52.198;9.902;2023-06-10T07:27:57;7.77;;;6.90;;
17524;SDS011;40431;52.198;9.902;2023-06-10T07:30:23;9.90;;;7.23;;
17524;SDS011;40431;52.198;9.902;2023-06-10T07:32:50;7.37;;;6.67;;
17524;SDS011;40431;52.198;9.902;2023-06-10T07:35:17;8.20;;;7.13;;
17524;SDS011;40431;52.198;9.902;2023-06-10T07:37:43;7.73;;;7.03;;
17524;SDS011;40431;52.198;9.902;2023-06-10T07:40:11;7.83;;;7.23;;
17524;SDS011;40431;52.198;9.902;2023-06-10T07:42:38;7.90;;;7.10;;
17524;SDS011;40431;52.198;9.902;2023-06-10T07:45:05;7.73;;;7.03;;
17524;SDS011;40431;52.198;9.902;2023-06-10T07:47:32;11.13;;;7.53;;
17524;SDS011;40431;52.198;9.902;2023-06-10T07:49:59;7.30;;;6.60;;
17524;SDS011;40431;52.198;9.902;2023-06-10T07:52:26;7.90;;;7.10;;
17524;SDS011;40431;52.198;9.902;2023-06-10T07:54:53;7.57;;;6.97;;
17524;SDS011;40431;52.198;9.902;2023-06-10T07:57:21;7.43;;;6.73;;
17524;SDS011;40431;52.198;9.902;2023-06-10T07:59:47;7.57;;;6.83;;
17524;SDS011;40431;52.198;9.902;2023-06-10T08:02:14;7.37;;;6.67;;
17524;SDS011;40431;52.198;9.902;2023-06-10T08:04:40;9.00;;;7.37;;
17524;SDS011;40431;52.198;9.902;2023-06-10T08:07:06;7.97;;;6.70;;
17524;SDS011;40431;52.198;9.902;2023-06-10T08:09:33;9.30;;;6.70;;
17524;SDS011;40431;52.198;9.902;2023-06-10T08:11:59;7.70;;;6.47;;
17524;SDS011;40431;52.198;9.902;2023-06-10T08:14:27;8.63;;;7.47;;
17524;SDS011;40431;52.198;9.902;2023-06-10T08:16:53;8.87;;;6.87;;
17524;SDS011;40431;52.198;9.902;2023-06-10T08:19:20;7.50;;;6.80;;
17524;SDS011;40431;52.198;9.902;2023-06-10T08:21:46;7.53;;;6.73;;
17524;SDS011;40431;52.198;9.902;2023-06-10T08:24:13;8.40;;;6.60;;
17524;SDS011;40431;52.198;9.902;2023-06-10T08:26:41;7.70;;;7.00;;
17524;SDS011;40431;52.198;9.902;2023-06-10T08:29:07;7.30;;;6.30;;
17524;SDS011;40431;52.198;9.902;2023-06-10T08:31:35;8.50;;;6.30;;
17524;SDS011;40431;52.198;9.902;2023-06-10T08:34:01;7.40;;;6.23;;
17524;SDS011;40431;52.198;9.902;2023-06-10T08:36:28;7.83;;;7.13;;
17524;SDS011;40431;52.198;9.902;2023-06-10T08:38:54;6.50;;;5.80;;
17524;SDS011;40431;52.198;9.902;2023-06-10T08:41:21;9.93;;;9.13;;
17524;SDS011;40431;52.198;9.902;2023-06-10T08:43:53;9.83;;;8.83;;
17524;SDS011;40431;52.198;9.902;2023-06-10T08:46:28;11.90;;;10.90;;
17524;SDS011;40431;52.198;9.902;2023-06-10T08:48:59;7.40;;;6.73;;
17524;SDS011;40431;52.198;9.902;2023-06-10T08:51:28;8.17;;;6.57;;
17524;SDS011;40431;52.198;9.902;2023-06-10T08:53:59;7.03;;;6.20;;
17524;SDS011;40431;52.198;9.902;2023-06-10T08:56:28;9.37;;;7.47;;
17524;SDS011;40431;52.198;9.902;2023-06-10T08:59:01;6.80;;;6.20;;
17524;SDS011;40431;52.198;9.902;2023-06-10T09:01:28;8.33;;;7.37;;
17524;SDS011;40431;52.198;9.902;2023-06-10T09:03:55;8.33;;;6.80;;
17524;SDS011;40431;52.198;9.902;2023-06-10T09:06:24;6.83;;;6.20;;
17524;SDS011;40431;52.198;9.902;2023-06-10T09:08:51;7.53;;;6.83;;
17524;SDS011;40431;52.198;9.902;2023-06-10T09:11:18;7.77;;;6.00;;
17524;SDS011;40431;52.198;9.902;2023-06-10T09:13:44;7.23;;;6.50;;
17524;SDS011;40431;52.198;9.902;2023-06-10T09:16:11;7.20;;;6.13;;
17524;SDS011;40431;52.198;9.902;2023-06-10T09:18:38;6.73;;;6.03;;
17524;SDS011;40431;52.198;9.902;2023-06-10T09:21:05;10.03;;;6.70;;
17524;SDS011;40431;52.198;9.902;2023-06-10T09:23:33;6.57;;;5.97;;
17524;SDS011;40431;52.198;9.902;2023-06-10T09:25:59;7.47;;;6.17;;
17524;SDS011;40431;52.198;9.902;2023-06-10T09:28:25;9.40;;;5.97;;
17524;SDS011;40431;52.198;9.902;2023-06-10T09:31:01;9.77;;;6.37;;
17524;SDS011;40431;52.198;9.902;2023-06-10T09:33:29;6.93;;;6.10;;
17524;SDS011;40431;52.198;9.902;2023-06-10T09:35:55;7.03;;;6.33;;
17524;SDS011;40431;52.198;9.902;2023-06-10T09:38:28;6.53;;;5.37;;
17524;SDS011;40431;52.198;9.902;2023-06-10T09:40:58;6.97;;;6.27;;
17524;SDS011;40431;52.198;9.902;2023-06-10T09:43:38;7.87;;;6.60;;
17524;SDS011;40431;52.198;9.902;2023-06-10T09:46:06;7.47;;;6.80;;
17524;SDS011;40431;52.198;9.902;2023-06-10T09:48:34;7.43;;;6.60;;
17524;SDS011;40431;52.198;9.902;2023-06-10T09:51:01;7.27;;;6.53;;
17524;SDS011;40431;52.198;9.902;2023-06-10T09:53:28;8.23;;;6.77;;
17524;SDS011;40431;52.198;9.902;2023-06-10T09:56:00;7.80;;;7.07;;
17524;SDS011;40431;52.198;9.902;2023-06-10T09:58:33;7.23;;;6.57;;
17524;SDS011;40431;52.198;9.902;2023-06-10T10:01:01;6.70;;;5.60;;
17524;SDS011;40431;52.198;9.902;2023-06-10T10:03:30;6.50;;;5.93;;
17524;SDS011;40431;52.198;9.902;2023-06-10T10:05:57;5.87;;;5.30;;
17524;SDS011;40431;52.198;9.902;2023-06-10T10:08:25;6.80;;;5.20;;
17524;SDS011;40431;52.198;9.902;2023-06-10T10:10:51;6.33;;;5.40;;
17524;SDS011;40431;52.198;9.902;2023-06-10T10:13:19;6.27;;;5.67;;
17524;SDS011;40431;52.198;9.902;2023-06-10T10:15:46;7.40;;;6.03;;
17524;SDS011;40431;52.198;9.902;2023-06-10T10:18:14;7.07;;;6.37;;
17524;SDS011;40431;52.198;9.902;2023-06-10T10:20:46;6.53;;;5.93;;
17524;SDS011;40431;52.198;9.902;2023-06-10T10:23:18;6.83;;;5.73;;
17524;SDS011;40431;52.198;9.902;2023-06-10T10:25:49;6.53;;;5.90;;
17524;SDS011;40431;52.198;9.902;2023-06-10T10:28:19;6.43;;;5.77;;
17524;SDS011;40431;52.198;9.902;2023-06-10T10:30:52;10.23;;;6.73;;
17524;SDS011;40431;52.198;9.902;2023-06-10T10:33:26;6.13;;;5.53;;
17524;SDS011;40431;52.198;9.902;2023-06-10T10:36:06;8.00;;;6.00;;
17524;SDS011;40431;52.198;9.902;2023-06-10T10:38:33;5.77;;;5.17;;
17524;SDS011;40431;52.198;9.902;2023-06-10T10:41:01;6.63;;;6.03;;
17524;SDS011;40431;52.198;9.902;2023-06-10T10:43:30;5.93;;;5.33;;
17524;SDS011;40431;52.198;9.902;2023-06-10T10:45:58;9.30;;;6.03;;
17524;SDS011;40431;52.198;9.902;2023-06-10T10:48:25;6.33;;;5.77;;
17524;SDS011;40431;52.198;9.902;2023-06-10T10:50:56;8.53;;;5.53;;
17524;SDS011;40431;52.198;9.902;2023-06-10T10:53:23;8.50;;;5.13;;
17524;SDS011;40431;52.198;9.902;2023-06-10T10:55:57;6.03;;;5.40;;
17524;SDS011;40431;52.198;9.902;2023-06-10T10:58:24;5.80;;;5.20;;
17524;SDS011;40431;52.198;9.902;2023-06-10T11:00:52;5.97;;;5.47;;
17524;SDS011;40431;52.198;9.902;2023-06-10T11:03:19;6.40;;;5.50;;
17524;SDS011;40431;52.198;9.902;2023-06-10T11:05:46;6.93;;;5.60;;
17524;SDS011;40431;52.198;9.902;2023-06-10T11:08:14;5.80;;;5.20;;
17524;SDS011;40431;52.198;9.902;2023-06-10T11:10:41;7.57;;;5.77;;
17524;SDS011;40431;52.198;9.902;2023-06-10T11:13:18;6.30;;;5.70;;
17524;SDS011;40431;52.198;9.902;2023-06-10T11:15:46;7.83;;;5.80;;
17524;SDS011;40431;52.198;9.902;2023-06-10T11:18:21;5.63;;;5.13;;
17524;SDS011;40431;52.198;9.902;2023-06-10T11:21:05;6.27;;;5.57;;
17524;SDS011;40431;52.198;9.902;2023-06-10T11:23:41;5.90;;;5.50;;
17524;SDS011;40431;52.198;9.902;2023-06-10T11:26:12;8.17;;;6.40;;
17524;SDS011;40431;52.198;9.902;2023-06-10T11:28:40;6.10;;;5.00;;
17524;SDS011;40431;52.198;9.902;2023-06-10T11:31:07;5.50;;;5.00;;
17524;SDS011;40431;52.198;9.902;2023-06-10T11:33:35;5.87;;;5.30;;
17524;SDS011;40431;52.198;9.902;2023-06-10T11:36:06;7.57;;;5.73;;
17524;SDS011;40431;52.198;9.902;2023-06-10T11:38:33;9.60;;;5.30;;
17524;SDS011;40431;52.198;9.902;2023-06-10T11:40:59;7.33;;;6.00;;
17524;SDS011;40431;52.198;9.902;2023-06-10T11:43:27;7.30;;;5.40;;
17524;SDS011;40431;52.198;9.902;2023-06-10T11:45:54;6.07;;;5.57;;
17524;SDS011;40431;52.198;9.902;2023-06-10T11:48:21;8.27;;;5.67;;
17524;SDS011;40431;52.198;9.902;2023-06-10T11:50:49;6.30;;;5.80;;
17524;SDS011;40431;52.198;9.902;2023-06-10T11:53:18;6.87;;;5.90;;
17524;SDS011;40431;52.198;9.902;2023-06-10T11:55:45;9.10;;;5.57;;
17524;SDS011;40431;52.198;9.902;2023-06-10T11:58:13;6.07;;;5.57;;
17524;SDS011;40431;52.198;9.902;2023-06-10T12:00:43;9.07;;;5.53;;
17524;SDS011;40431;52.198;9.902;2023-06-10T12:03:11;6.47;;;5.87;;
17524;SDS011;40431;52.198;9.902;2023-06-10T12:05:37;7.37;;;4.90;;
17524;SDS011;40431;52.198;9.902;2023-06-10T12:08:11;6.00;;;5.50;;
17524;SDS011;40431;52.198;9.902;2023-06-10T12:10:41;6.13;;;5.47;;
17524;SDS011;40431;52.198;9.902;2023-06-10T12:13:08;6.17;;;5.20;;
17524;SDS011;40431;52.198;9.902;2023-06-10T12:15:35;5.73;;;5.13;;
17524;SDS011;40431;52.198;9.902;2023-06-10T12:18:01;6.27;;;5.67;;
17524;SDS011;40431;52.198;9.902;2023-06-10T12:20:29;6.70;;;5.20;;
17524;SDS011;40431;52.198;9.902;2023-06-10T12:22:57;6.47;;;5.07;;
17524;SDS011;40431;52.198;9.902;2023-06-10T12:25:25;6.23;;;5.67;;
17524;SDS011;40431;52.198;9.902;2023-06-10T12:27:53;9.90;;;5.67;;
17524;SDS011;40431;52.198;9.902;2023-06-10T12:30:21;5.57;;;5.03;;
17524;SDS011;40431;52.198;9.902;2023-06-10T12:32:49;5.67;;;5.07;;
17524;SDS011;40431;52.198;9.902;2023-06-10T12:35:18;10.23;;;5.30;;
17524;SDS011;40431;52.198;9.902;2023-06-10T12:37:54;5.97;;;5.47;;
17524;SDS011;40431;52.198;9.902;2023-06-10T12:40:26;5.97;;;5.50;;
17524;SDS011;40431;52.198;9.902;2023-06-10T12:42:54;6.30;;;5.70;;
17524;SDS011;40431;52.198;9.902;2023-06-10T12:45:26;9.07;;;5.80;;
17524;SDS011;40431;52.198;9.902;2023-06-10T12:47:53;5.67;;;5.27;;
17524;SDS011;40431;52.198;9.902;2023-06-10T12:50:30;6.53;;;6.03;;
17524;SDS011;40431;52.198;9.902;2023-06-10T12:52:57;6.00;;;5.57;;
17524;SDS011;40431;52.198;9.902;2023-06-10T12:55:23;5.67;;;5.27;;
17524;SDS011;40431;52.198;9.902;2023-06-10T12:57:51;5.90;;;5.40;;
17524;SDS011;40431;52.198;9.902;2023-06-10T13:00:18;5.87;;;5.37;;
17524;SDS011;40431;52.198;9.902;2023-06-10T13:02:45;15.67;;;6.27;;
17524;SDS011;40431;52.198;9.902;2023-06-10T13:05:11;6.47;;;5.57;;
17524;SDS011;40431;52.198;9.902;2023-06-10T13:07:37;5.57;;;5.07;;
17524;SDS011;40431;52.198;9.902;2023-06-10T13:10:04;6.43;;;5.83;;
17524;SDS011;40431;52.198;9.902;2023-06-10T13:12:32;6.17;;;5.57;;
17524;SDS011;40431;52.198;9.902;2023-06-10T13:14:59;7.57;;;5.50;;
17524;SDS011;40431;52.198;9.902;2023-06-10T13:17:27;5.90;;;5.30;;
17524;SDS011;40431;52.198;9.902;2023-06-10T13:19:53;6.07;;;5.57;;
17524;SDS011;40431;52.198;9.902;2023-06-10T13:22:20;6.27;;;5.47;;
17524;SDS011;40431;52.198;9.902;2023-06-10T13:24:48;5.80;;;5.30;;
17524;SDS011;40431;52.198;9.902;2023-06-10T13:27:15;5.90;;;5.40;;
17524;SDS011;40431;52.198;9.902;2023-06-10T13:29:42;5.37;;;4.80;;
17524;SDS011;40431;52.198;9.902;2023-06-10T13:32:09;6.37;;;5.90;;
17524;SDS011;40431;52.198;9.902;2023-06-10T13:34:36;7.13;;;4.87;;
17524;SDS011;40431;52.198;9.902;2023-06-10T13:37:02;6.70;;;5.33;;
17524;SDS011;40431;52.198;9.902;2023-06-10T13:39:30;5.40;;;5.00;;
17524;SDS011;40431;52.198;9.902;2023-06-10T13:41:56;5.47;;;4.87;;
17524;SDS011;40431;52.198;9.902;2023-06-10T13:44:22;5.60;;;5.10;;
17524;SDS011;40431;52.198;9.902;2023-06-10T13:46:49;6.47;;;5.30;;
17524;SDS011;40431;52.198;9.902;2023-06-10T13:49:17;5.30;;;4.83;;
17524;SDS011;40431;52.198;9.902;2023-06-10T13:51:43;5.40;;;5.00;;
17524;SDS011;40431;52.198;9.902;2023-06-10T13:54:10;5.70;;;5.07;;
17524;SDS011;40431;52.198;9.902;2023-06-10T13:56:40;6.10;;;5.60;;
17524;SDS011;40431;52.198;9.902;2023-06-10T13:59:07;5.77;;;5.33;;
17524;SDS011;40431;52.198;9.902;2023-06-10T14:01:33;6.17;;;5.67;;
17524;SDS011;40431;52.198;9.902;2023-06-10T14:04:00;6.03;;;5.53;;
17524;SDS011;40431;52.198;9.902;2023-06-10T14:06:29;5.73;;;5.23;;
17524;SDS011;40431;52.198;9.902;2023-06-10T14:08:55;5.63;;;5.10;;
17524;SDS011;40431;52.198;9.902;2023-06-10T14:11:22;6.70;;;4.73;;
17524;SDS011;40431;52.198;9.902;2023-06-10T14:13:49;5.60;;;5.07;;
17524;SDS011;40431;52.198;9.902;2023-06-10T14:16:15;6.80;;;5.13;;
17524;SDS011;40431;52.198;9.902;2023-06-10T14:18:41;5.47;;;4.97;;
17524;SDS011;40431;52.198;9.902;2023-06-10T14:21:08;7.37;;;5.37;;
17524;SDS011;40431;52.198;9.902;2023-06-10T14:23:35;6.43;;;5.17;;
17524;SDS011;40431;52.198;9.902;2023-06-10T14:26:02;5.17;;;4.77;;
17524;SDS011;40431;52.198;9.902;2023-06-10T14:28:30;6.27;;;5.67;;
17524;SDS011;40431;52.198;9.902;2023-06-10T14:30:57;5.87;;;5.47;;
17524;SDS011;40431;52.198;9.902;2023-06-10T14:33:23;10.47;;;5.23;;
17524;SDS011;40431;52.198;9.902;2023-06-10T14:35:49;5.97;;;5.13;;
17524;SDS011;40431;52.198;9.902;2023-06-10T14:38:16;6.40;;;4.87;;
17524;SDS011;40431;52.198;9.902;2023-06-10T14:40:44;5.57;;;4.77;;
17524;SDS011;40431;52.198;9.902;2023-06-10T14:43:11;7.30;;;4.70;;
17524;SDS011;40431;52.198;9.902;2023-06-10T14:45:38;5.33;;;4.93;;
17524;SDS011;40431;52.198;9.902;2023-06-10T14:48:05;5.63;;;5.10;;
17524;SDS011;40431;52.198;9.902;2023-06-10T14:50:32;5.77;;;5.00;;